Data for 10/25/2010

Time Sea-Level Adjusted Pressure Absolute Pressure Temperature Relative Humidity Dew Point   
(mb) (inHg) (mb) (inHg) (C) (F) (%) (C) (F)
00:05 999 29.5 829 24.48 4.7 40.4 80 1.6 34.8
00:10 999 29.5 829 24.48 4.6 40.2 80 1.5 34.7
00:15 999 29.5 828 24.45 4.6 40.3 78 1.2 34.1
00:20 999 29.5 828 24.45 4.8 40.7 77 1.1 33.9
00:25 999 29.5 828 24.45 4.9 40.9 76 1.1 33.9
00:30 999 29.5 828 24.45 4.9 40.8 78 1.4 34.6
00:35 999 29.5 828 24.45 4.9 40.9 75 0.9 33.7
00:40 999 29.5 828 24.45 5 41 76 1.2 34.2
00:45 999 29.5 829 24.48 5 41 76 1.2 34.2
00:50 999 29.5 829 24.48 4.8 40.6 79 1.4 34.6
00:55 999 29.5 829 24.48 4.5 40.1 78 0.9 33.7
01:00 999 29.5 829 24.48 4.8 40.6 74 0.5 32.9
01:05 999 29.5 829 24.48 5 41 73 0.5 32.9
01:10 999 29.5 828 24.45 5 41 70 -0.1 31.9
01:15 999 29.5 828 24.45 4.8 40.6 68 -0.6 30.9
01:20 999 29.5 828 24.45 4.8 40.7 69 -0.4 31.2
01:25 999 29.5 828 24.45 4.8 40.6 67 -0.7 30.7
01:30 999 29.5 828 24.45 4.9 40.8 67 -0.7 30.7
01:35 999 29.5 828 24.45 5 41 66 -0.9 30.3
01:40 999 29.5 828 24.45 5.1 41.1 66 -0.6 30.8
01:45 999 29.5 828 24.45 5 40.9 66 -0.9 30.3
01:50 999 29.5 828 24.45 5 41 65 -1.1 30
01:55 999 29.5 828 24.45 5.1 41.2 65 -0.9 30.4
02:00 999 29.5 828 24.45 5 41 67 -0.6 30.9
02:05 999 29.5 828 24.45 4.8 40.7 67 -0.7 30.7
02:10 999 29.5 828 24.45 4.7 40.5 69 -0.5 31.1
02:15 999 29.5 829 24.48 4.6 40.2 71 -0.2 31.7
02:20 999 29.5 829 24.48 4.4 40 74 0.1 32.3
02:25 999 29.5 829 24.48 4.3 39.7 75 0.3 32.5
02:30 1000 29.53 829 24.48 4.2 39.5 76 0.4 32.7
02:35 999 29.5 829 24.48 4 39.3 77 0.4 32.8
02:40 999 29.5 829 24.48 4 39.3 77 0.4 32.7
02:45 1000 29.53 829 24.48 4 39.2 77 0.4 32.7
02:50 1000 29.53 829 24.48 4 39.1 78 0.4 32.7
02:55 1000 29.53 829 24.48 3.9 39 77 0.3 32.5
03:00 1000 29.53 829 24.48 3.9 39 76 0 32
03:05 1000 29.53 829 24.48 3.9 39 73 -0.4 31.2
03:10 1000 29.53 829 24.48 3.9 39.1 72 -0.6 31
03:15 1000 29.53 829 24.48 3.9 39 73 -0.4 31.2
03:20 1000 29.53 829 24.48 3.8 38.8 72 -0.7 30.7
03:25 1000 29.53 829 24.48 3.6 38.5 73 -0.8 30.6
03:30 1000 29.53 829 24.48 3.5 38.3 73 -0.8 30.6
03:35 1000 29.53 829 24.48 3.5 38.2 75 -0.5 31.1
03:40 1000 29.53 829 24.48 3.3 37.9 74 -1 30.2
03:45 1000 29.53 829 24.48 3.2 37.7 73 -1.2 29.8
03:50 1000 29.53 829 24.48 3.2 37.7 73 -1.2 29.9
03:55 1000 29.53 829 24.48 3.2 37.8 73 -1.1 30
04:00 1000 29.53 829 24.48 3.2 37.7 74 -1 30.2
04:05 1000 29.53 829 24.48 3.2 37.8 74 -1 30.3
04:10 1000 29.53 830 24.51 3.2 37.8 75 -0.9 30.4
04:15 1000 29.53 830 24.51 3.2 37.7 74 -1 30.2
04:20 1001 29.56 830 24.51 3.1 37.6 76 -0.7 30.7
04:25 1001 29.56 830 24.51 3 37.3 75 -1 30.2
04:30 1001 29.56 830 24.51 3 37.3 74 -1.3 29.7
04:35 1001 29.56 830 24.51 3.1 37.5 69 -2 28.4
04:40 1001 29.56 830 24.51 3 37.5 69 -2 28.4
04:45 1001 29.56 830 24.51 2.9 37.3 70 -2.1 28.3
04:50 1001 29.56 830 24.51 2.9 37.2 66 -2.8 26.9
04:55 1001 29.56 830 24.51 3 37.3 65 -3 26.6
05:00 1001 29.56 830 24.51 3 37.3 66 -2.9 26.9
05:05 1001 29.56 830 24.51 2.8 37.1 67 -2.8 27
05:10 1001 29.56 830 24.51 2.6 36.7 67 -2.9 26.7
05:15 1001 29.56 830 24.51 2.4 36.3 66 -3.3 26.1
05:20 1001 29.56 830 24.51 2.3 36.2 66 -3.5 25.8
05:25 1001 29.56 830 24.51 2.3 36.1 65 -3.7 25.3
05:30 1001 29.56 830 24.51 2.3 36.2 62 -4.3 24.3
05:35 1001 29.56 830 24.51 2.5 36.4 61 -4.3 24.2
05:40 1001 29.56 830 24.51 2.5 36.5 61 -4.3 24.3
05:45 1001 29.56 830 24.51 2.4 36.3 62 -4.2 24.4
05:50 1001 29.56 831 24.54 2.2 35.9 65 -3.7 25.3
05:55 1001 29.56 831 24.54 1.9 35.5 64 -4.1 24.7
06:00 1002 29.59 831 24.54 1.9 35.4 66 -3.9 25
06:05 1002 29.59 831 24.54 1.9 35.4 64 -4.2 24.4
06:10 1002 29.59 831 24.54 2.1 35.8 65 -3.8 25.2
06:15 1002 29.59 831 24.54 2.2 35.9 65 -3.6 25.5
06:20 1002 29.59 831 24.54 2.2 35.9 65 -3.7 25.3
06:25 1002 29.59 831 24.54 2.2 36 65 -3.7 25.4
06:30 1002 29.59 831 24.54 2.2 35.9 65 -3.6 25.4
06:35 1002 29.59 831 24.54 2.2 35.9 64 -3.9 25
06:40 1002 29.59 831 24.54 2.2 36 62 -4.2 24.4
06:45 1002 29.59 831 24.54 2.3 36.2 65 -3.5 25.7
06:50 1002 29.59 831 24.54 2 35.7 69 -3 26.6
06:55 1002 29.59 831 24.54 1.7 35.1 71 -3 26.6
07:00 1002 29.59 831 24.54 1.7 35 71 -3.1 26.4
07:05 1002 29.59 832 24.57 1.8 35.2 68 -3.5 25.7
07:10 1002 29.59 832 24.57 2 35.5 67 -3.4 25.8
07:15 1002 29.59 832 24.57 1.9 35.4 68 -3.3 26.1
07:20 1002 29.59 832 24.57 1.8 35.3 71 -2.9 26.8
07:25 1002 29.59 832 24.57 1.4 34.5 73 -3 26.6
07:30 1002 29.59 832 24.57 1.3 34.3 72 -3.3 26
07:35 1002 29.59 832 24.57 1.5 34.7 71 -3.2 26.2
07:40 1002 29.59 832 24.57 1.7 35 67 -3.7 25.3
07:45 1002 29.59 832 24.57 1.8 35.2 69 -3.3 26.1
07:50 1002 29.59 832 24.57 1.9 35.4 67 -3.6 25.5
07:55 1002 29.59 832 24.57 2.1 35.7 64 -3.9 24.9
08:00 1002 29.59 832 24.57 2.2 36 65 -3.7 25.3
08:05 1002 29.59 832 24.57 2.4 36.2 64 -3.8 25.1
08:10 1002 29.59 832 24.57 2.3 36.2 64 -3.8 25.2
08:15 1002 29.59 832 24.57 2.3 36.1 63 -4 24.8
08:20 1003 29.62 832 24.57 2.2 36 64 -3.8 25.1
08:25 1003 29.62 832 24.57 2.2 36 64 -3.9 25
08:30 1003 29.62 832 24.57 2.3 36.1 63 -4.1 24.7
08:35 1003 29.62 832 24.57 2.2 35.9 64 -4 24.9
08:40 1003 29.62 832 24.57 2.2 36 65 -3.7 25.3
08:45 1003 29.62 832 24.57 2.2 36 64 -3.8 25.1
08:50 1003 29.62 832 24.57 2.3 36.1 64 -3.9 24.9
08:55 1003 29.62 832 24.57 2.5 36.5 64 -3.7 25.4
09:00 1003 29.62 832 24.57 2.6 36.8 59 -4.5 23.8
09:05 1003 29.62 832 24.57 2.8 37.1 57 -4.9 23.2
09:10 1003 29.62 833 24.6 3 37.4 57 -4.8 23.4
09:15 1003 29.62 833 24.6 3 37.4 55 -5.2 22.6
09:20 1003 29.62 833 24.6 3.1 37.6 54 -5.3 22.4
09:25 1004 29.65 833 24.6 3.2 37.7 53 -5.5 22.1
09:30 1004 29.65 833 24.6 3.2 37.8 54 -5.1 22.7
09:35 1004 29.65 833 24.6 3.3 37.9 54 -5.1 22.9
09:40 1004 29.65 833 24.6 3.3 37.9 54 -5.1 22.8
09:45 1004 29.65 833 24.6 3.2 37.8 55 -4.9 23.1
09:50 1004 29.65 833 24.6 3.2 37.8 56 -4.8 23.3
09:55 1004 29.65 833 24.6 3.2 37.8 56 -4.7 23.5
10:00 1004 29.65 833 24.6 3.3 37.9 56 -4.6 23.7
10:05 1004 29.65 833 24.6 3.3 38 55 -4.9 23.2
10:10 1004 29.65 833 24.6 3.4 38.1 55 -4.9 23.2
10:15 1004 29.65 833 24.6 3.5 38.2 55 -4.6 23.6
10:20 1004 29.65 833 24.6 3.5 38.3 56 -4.3 24.2
10:25 1004 29.65 833 24.6 3.5 38.3 57 -4.2 24.4
10:30 1004 29.65 833 24.6 3.5 38.3 57 -4.2 24.5
10:35 1004 29.65 833 24.6 3.5 38.2 57 -4.2 24.4
10:40 1004 29.65 833 24.6 3.5 38.2 57 -4.4 24.1
10:45 1004 29.65 833 24.6 3.6 38.5 56 -4.4 24.1
10:50 1004 29.65 834 24.63 3.7 38.6 56 -4.4 24.2
10:55 1004 29.65 834 24.63 3.8 38.8 55 -4.5 23.9
11:00 1004 29.65 834 24.63 3.8 38.8 55 -4.4 24.1
11:05 1005 29.68 834 24.63 3.8 38.9 55 -4.3 24.3
11:10 1005 29.68 834 24.63 3.9 39.1 55 -4.3 24.3
11:15 1005 29.68 834 24.63 3.9 39.1 55 -4.2 24.4
11:20 1005 29.68 834 24.63 3.9 39.1 54 -4.6 23.7
11:25 1005 29.68 834 24.63 4 39.2 54 -4.6 23.7
11:30 1005 29.68 834 24.63 4 39.3 53 -4.7 23.5
11:35 1005 29.68 834 24.63 4.1 39.3 53 -4.6 23.7
11:40 1005 29.68 834 24.63 4.1 39.5 51 -5 23
11:45 1005 29.68 834 24.63 4.2 39.5 52 -4.9 23.2
11:50 1005 29.68 834 24.63 4.2 39.6 52 -4.8 23.3
11:55 1005 29.68 834 24.63 4.4 39.9 51 -4.8 23.3
12:00 1005 29.68 834 24.63 4.4 39.9 51 -4.8 23.4
12:05 1005 29.68 834 24.63 4.5 40.1 52 -4.4 24.1
12:10 1005 29.68 834 24.63 4.7 40.4 54 -3.8 25.2
12:15 1005 29.68 834 24.63 4.7 40.5 52 -4.4 24.1
12:20 1005 29.68 834 24.63 4.8 40.6 51 -4.5 23.9
12:25 1005 29.68 834 24.63 4.8 40.6 47 -5.5 22.1
12:30 1005 29.68 834 24.63 4.7 40.5 48 -5.3 22.4
12:35 1005 29.68 834 24.63 4.8 40.7 48 -5.2 22.6
12:40 1005 29.68 834 24.63 4.9 40.8 47 -5.6 22
12:45 1005 29.68 834 24.63 4.9 40.9 47 -5.5 22.1
12:50 1005 29.68 834 24.63 5 41.1 46 -5.6 22
12:55 1005 29.68 834 24.63 5.2 41.3 46 -5.5 22.2
13:00 1005 29.68 835 24.66 5.2 41.3 47 -5.2 22.6
13:05 1005 29.68 835 24.66 5.3 41.5 47 -5.2 22.7
13:10 1005 29.68 835 24.66 5.3 41.6 45 -5.5 22.1
13:15 1005 29.68 835 24.66 5.6 42.1 44 -5.7 21.8
13:20 1005 29.68 834 24.63 5.7 42.2 44 -5.5 22
13:25 1005 29.68 834 24.63 5.7 42.2 43 -5.8 21.5
13:30 1005 29.68 835 24.66 5.7 42.3 45 -5.4 22.4
13:35 1005 29.68 835 24.66 5.7 42.3 45 -5.4 22.4
13:40 1005 29.68 834 24.63 5.7 42.3 44 -5.6 21.9
13:45 1005 29.68 834 24.63 5.8 42.4 43 -5.7 21.7
13:50 1005 29.68 834 24.63 5.8 42.4 44 -5.4 22.2
13:55 1005 29.68 834 24.63 5.9 42.6 45 -5.2 22.6
14:00 1005 29.68 834 24.63 5.8 42.5 45 -5.3 22.5
14:05 1005 29.68 834 24.63 5.8 42.4 44 -5.7 21.8
14:10 1005 29.68 834 24.63 5.7 42.3 45 -5.2 22.6
14:15 1005 29.68 835 24.66 5.8 42.4 45 -5.3 22.4
14:20 1005 29.68 835 24.66 5.7 42.3 46 -5.1 22.7
14:25 1005 29.68 835 24.66 5.7 42.3 46 -5 23
14:30 1005 29.68 835 24.66 5.7 42.2 46 -5 23
14:35 1005 29.68 835 24.66 5.6 42.1 47 -4.8 23.3
14:40 1005 29.68 835 24.66 5.5 41.9 48 -4.5 23.8
14:45 1005 29.68 835 24.66 5.3 41.5 52 -3.9 25.1
14:50 1005 29.68 835 24.66 5.2 41.4 53 -3.5 25.6
14:55 1006 29.71 835 24.66 5.2 41.3 54 -3.5 25.7
15:00 1006 29.71 835 24.66 5.1 41.2 53 -3.6 25.6
15:05 1005 29.68 835 24.66 5.2 41.4 50 -4.4 24
15:10 1005 29.68 835 24.66 5.5 41.9 47 -4.9 23.1
15:15 1006 29.71 835 24.66 5.6 42.1 50 -4 24.7
15:20 1006 29.71 835 24.66 5.4 41.8 53 -3.4 25.8
15:25 1006 29.71 835 24.66 5.2 41.4 53 -3.5 25.7
15:30 1006 29.71 835 24.66 5.2 41.3 53 -3.7 25.3
15:35 1006 29.71 835 24.66 5.1 41.3 53 -3.7 25.3
15:40 1006 29.71 835 24.66 5.2 41.4 51 -4 24.8
15:45 1006 29.71 835 24.66 5.3 41.6 52 -3.8 25.2
15:50 1006 29.71 835 24.66 5.4 41.6 54 -3.3 26.1
15:55 1006 29.71 835 24.66 5.1 41.2 55 -3.2 26.2
16:00 1006 29.71 835 24.66 4.9 40.8 56 -3.1 26.4
16:05 1006 29.71 835 24.66 4.8 40.7 57 -3 26.7
16:10 1006 29.71 835 24.66 4.7 40.5 59 -2.6 27.3
16:15 1006 29.71 835 24.66 4.5 40.1 59 -2.8 26.9
16:20 1006 29.71 835 24.66 4.6 40.2 58 -3 26.6
16:25 1006 29.71 835 24.66 4.7 40.4 59 -2.6 27.3
16:30 1006 29.71 835 24.66 4.7 40.5 61 -2.3 27.9
16:35 1006 29.71 835 24.66 4.7 40.5 61 -2.2 28.1
16:40 1006 29.71 835 24.66 4.5 40.2 61 -2.2 28
16:45 1006 29.71 835 24.66 4.5 40 61 -2.3 27.8
16:50 1006 29.71 835 24.66 4.4 39.8 61 -2.4 27.6
16:55 1006 29.71 835 24.66 4.2 39.6 63 -2.2 28
17:00 1006 29.71 835 24.66 4.1 39.4 64 -2.1 28.2
17:05 1006 29.71 836 24.69 4 39.1 65 -1.9 28.5
17:10 1006 29.71 836 24.69 3.7 38.6 66 -2.1 28.2
17:15 1006 29.71 836 24.69 3.5 38.4 68 -1.8 28.7
17:20 1006 29.71 836 24.69 3.4 38.1 69 -1.7 29
17:25 1006 29.71 836 24.69 3.4 38.1 70 -1.7 29
17:30 1007 29.74 836 24.69 3.2 37.8 69 -2 28.4
17:35 1007 29.74 836 24.69 3.3 37.9 69 -1.9 28.6
17:40 1007 29.74 836 24.69 3.3 38 69 -1.9 28.6
17:45 1007 29.74 836 24.69 3.2 37.8 69 -1.9 28.6
17:50 1007 29.74 836 24.69 3.3 38 69 -1.8 28.7
17:55 1007 29.74 836 24.69 3.4 38.1 70 -1.5 29.3
18:00 1007 29.74 836 24.69 3.3 37.9 73 -1.2 29.9
18:05 1007 29.74 836 24.69 3.1 37.6 72 -1.4 29.4
18:10 1007 29.74 836 24.69 3.4 38.1 70 -1.5 29.4
18:15 1007 29.74 836 24.69 3.5 38.3 70 -1.4 29.4
18:20 1007 29.74 836 24.69 3.4 38.2 73 -0.9 30.3
18:25 1007 29.74 836 24.69 3.1 37.5 75 -0.9 30.4
18:30 1007 29.74 836 24.69 3 37.4 75 -1 30.2
18:35 1007 29.74 836 24.69 2.9 37.3 75 -1 30.2
18:40 1007 29.74 836 24.69 3.1 37.5 72 -1.4 29.4
18:45 1007 29.74 836 24.69 3.4 38.1 73 -1 30.2
18:50 1007 29.74 836 24.69 3.4 38.2 71 -1.4 29.5
18:55 1007 29.74 836 24.69 3.5 38.3 72 -1.1 30
19:00 1007 29.74 836 24.69 3.1 37.6 76 -0.7 30.8
19:05 1007 29.74 836 24.69 2.8 37 75 -1.1 29.9
19:10 1007 29.74 836 24.69 2.9 37.2 75 -1.1 30
19:15 1007 29.74 836 24.69 3 37.4 74 -1.2 29.8
19:20 1007 29.74 836 24.69 3.1 37.5 73 -1.3 29.7
19:25 1007 29.74 836 24.69 3.2 37.7 73 -1.2 29.8
19:30 1007 29.74 836 24.69 3.3 38 68 -2 28.5
19:35 1007 29.74 836 24.69 3.6 38.5 66 -2.2 28.1
19:40 1007 29.74 836 24.69 3.8 38.8 66 -1.9 28.5
19:45 1007 29.74 836 24.69 3.7 38.7 70 -1.3 29.7
19:50 1007 29.74 836 24.69 3.4 38.1 72 -1.3 29.7
19:55 1007 29.74 836 24.69 3.2 37.7 71 -1.5 29.3
20:00 1007 29.74 836 24.69 3.2 37.7 70 -1.7 28.9
20:05 1007 29.74 836 24.69 3.3 37.9 71 -1.5 29.3
20:10 1007 29.74 836 24.69 3.3 37.9 71 -1.5 29.2
20:15 1007 29.74 836 24.69 3.4 38.2 70 -1.5 29.3
20:20 1007 29.74 836 24.69 3.5 38.3 68 -1.9 28.5
20:25 1007 29.74 836 24.69 3.6 38.5 70 -1.4 29.5
20:30 1007 29.74 836 24.69 3.2 37.8 75 -0.8 30.6
20:35 1007 29.74 836 24.69 2.7 36.9 77 -0.9 30.3
20:40 1007 29.74 836 24.69 2.6 36.8 78 -0.8 30.6
20:45 1007 29.74 836 24.69 2.7 36.9 78 -0.7 30.7
20:50 1007 29.74 836 24.69 2.7 36.9 77 -0.8 30.5
20:55 1007 29.74 836 24.69 2.6 36.7 77 -1 30.1
21:00 1007 29.74 836 24.69 2.6 36.7 77 -1 30.1
21:05 1007 29.74 837 24.72 2.5 36.6 76 -1.3 29.7
21:10 1007 29.74 837 24.72 2.7 36.8 77 -1 30.2
21:15 1007 29.74 837 24.72 2.9 37.2 75 -1.1 30.1
21:20 1007 29.74 837 24.72 2.9 37.1 75 -1.2 29.8
21:25 1007 29.74 837 24.72 2.9 37.2 74 -1.4 29.6
21:30 1007 29.74 837 24.72 3 37.4 73 -1.3 29.7
21:35 1007 29.74 837 24.72 2.9 37.2 75 -1 30.2
21:40 1007 29.74 837 24.72 2.8 37 76 -1.1 29.9
21:45 1007 29.74 837 24.72 2.8 37 75 -1.3 29.7
21:50 1007 29.74 837 24.72 2.8 37.1 76 -1.1 30.1
21:55 1007 29.74 837 24.72 2.7 36.9 77 -0.9 30.4
22:00 1007 29.74 837 24.72 2.6 36.6 77 -1 30.2
22:05 1007 29.74 837 24.72 2.6 36.7 78 -0.9 30.3
22:10 1007 29.74 837 24.72 2.6 36.6 79 -0.8 30.6
22:15 1007 29.74 837 24.72 2.4 36.3 80 -0.7 30.7
22:20 1007 29.74 837 24.72 2.4 36.3 80 -0.8 30.6
22:25 1007 29.74 837 24.72 2.4 36.4 80 -0.7 30.8
22:30 1007 29.74 837 24.72 2.4 36.4 79 -0.9 30.5
22:35 1007 29.74 837 24.72 2.5 36.5 71 -2.3 27.9
22:40 1007 29.74 837 24.72 2.6 36.7 71 -2.1 28.2
22:45 1007 29.74 837 24.72 2.8 37 68 -2.6 27.3
22:50 1007 29.74 837 24.72 2.9 37.3 70 -2 28.4
22:55 1007 29.74 837 24.72 2.9 37.2 71 -1.8 28.8
23:00 1007 29.74 837 24.72 2.9 37.1 71 -1.9 28.5
23:05 1007 29.74 837 24.72 3 37.4 64 -3.2 26.2
23:10 1007 29.74 837 24.72 3.2 37.7 61 -3.7 25.3
23:15 1007 29.74 837 24.72 3.3 37.9 64 -2.9 26.8
23:20 1007 29.74 837 24.72 3.3 37.9 63 -3 26.6
23:25 1007 29.74 837 24.72 3.2 37.7 64 -2.9 26.8
23:30 1007 29.74 837 24.72 3.1 37.6 59 -4.1 24.6
23:35 1007 29.74 837 24.72 3.2 37.8 57 -4.5 23.9
23:40 1008 29.77 837 24.72 3.3 37.9 60 -3.6 25.4
23:45 1008 29.77 837 24.72 3.2 37.7 61 -3.6 25.4
23:50 1008 29.77 837 24.72 3 37.4 62 -3.5 25.7
23:55 1008 29.77 837 24.72 2.9 37.3 63 -3.5 25.8
24:00 1008 29.77 837 24.72 3 37.3 63 -3.4 25.9